createdAt,value
2022-08-12T00:01:12.979Z,1.30
2022-08-12T00:03:59.970Z,1.55
2022-08-12T00:06:47.046Z,1.58
2022-08-12T00:09:33.328Z,1.20
2022-08-12T00:12:19.666Z,1.45
2022-08-12T00:15:06.081Z,1.30
2022-08-12T00:17:52.406Z,1.20
2022-08-12T00:20:38.869Z,1.48
2022-08-12T00:23:25.185Z,1.40
2022-08-12T00:26:22.993Z,1.30
2022-08-12T00:29:13.544Z,1.40
2022-08-12T00:32:01.306Z,1.50
2022-08-12T00:34:49.692Z,1.50
2022-08-12T00:37:40.796Z,1.50
2022-08-12T00:40:29.094Z,1.40
2022-08-12T00:42:57.648Z,1.23
2022-08-12T00:45:25.614Z,1.50
2022-08-12T00:47:54.144Z,1.37
2022-08-12T00:50:22.715Z,1.42
2022-08-12T00:52:52.924Z,1.45
2022-08-12T00:55:21.235Z,1.40
2022-08-12T00:57:50.673Z,1.45
2022-08-12T01:00:21.685Z,1.40
2022-08-12T01:02:55.725Z,1.40
2022-08-12T01:05:43.300Z,1.57
2022-08-12T01:08:30.130Z,1.60
2022-08-12T01:11:16.357Z,1.50
2022-08-12T01:13:48.238Z,1.60
2022-08-12T01:16:18.192Z,1.40
2022-08-12T01:18:46.095Z,1.30
2022-08-12T01:21:26.692Z,1.40
2022-08-12T01:24:29.687Z,1.42
2022-08-12T01:27:00.257Z,1.60
2022-08-12T01:29:32.457Z,1.50
2022-08-12T01:32:05.650Z,1.50
2022-08-12T01:34:39.461Z,1.60
2022-08-12T01:37:10.308Z,1.60
2022-08-12T01:40:34.587Z,1.62
2022-08-12T01:42:42.453Z,1.50
2022-08-12T01:45:12.430Z,1.50
2022-08-12T01:48:00.733Z,1.60
2022-08-12T01:50:51.077Z,1.70
2022-08-12T01:53:20.754Z,1.58
2022-08-12T01:55:48.876Z,1.50
2022-08-12T01:58:56.014Z,1.60
2022-08-12T02:01:30.779Z,1.63
2022-08-12T02:04:32.690Z,1.60
2022-08-12T02:07:54.267Z,1.67
2022-08-12T02:10:55.926Z,1.60
2022-08-12T02:13:49.785Z,1.40
2022-08-12T02:16:28.050Z,1.60
2022-08-12T02:19:22.232Z,1.70
2022-08-12T02:22:12.920Z,1.58
2022-08-12T02:24:42.585Z,2.20
2022-08-12T02:27:13.286Z,1.70
2022-08-12T02:29:40.973Z,1.50
2022-08-12T02:32:08.994Z,1.67
2022-08-12T02:34:37.841Z,1.67
2022-08-12T02:37:05.370Z,1.85
2022-08-12T02:39:34.427Z,1.80
2022-08-12T02:42:04.425Z,1.90
2022-08-12T02:44:37.258Z,2.10
2022-08-12T02:47:06.510Z,1.80
2022-08-12T02:49:36.253Z,1.90
2022-08-12T02:52:04.759Z,1.77
2022-08-12T02:54:32.493Z,1.80
2022-08-12T02:57:00.815Z,1.70
2022-08-12T02:59:29.565Z,1.80
2022-08-12T03:02:03.633Z,1.80
2022-08-12T03:04:39.050Z,2.17
2022-08-12T03:07:15.930Z,2.08
2022-08-12T03:10:03.674Z,1.98
2022-08-12T03:12:48.982Z,2.50
2022-08-12T03:15:22.246Z,2.45
2022-08-12T03:18:24.824Z,1.90
2022-08-12T03:20:46.148Z,2.20
2022-08-12T03:23:28.610Z,2.17
2022-08-12T03:26:01.794Z,1.87
2022-08-12T03:28:50.632Z,1.80
2022-08-12T03:31:24.721Z,1.70
2022-08-12T03:34:02.385Z,1.90
2022-08-12T03:36:35.921Z,2.00
2022-08-12T03:39:18.592Z,1.90
2022-08-12T03:42:06.191Z,1.97
2022-08-12T03:45:31.325Z,1.90
2022-08-12T03:48:24.005Z,2.10
2022-08-12T03:51:10.888Z,1.90
2022-08-12T03:53:56.926Z,1.97
2022-08-12T03:56:43.330Z,2.08
2022-08-12T03:59:29.951Z,2.10
2022-08-12T04:01:59.192Z,1.90
2022-08-12T04:04:35.446Z,1.83
2022-08-12T04:07:07.953Z,1.98
2022-08-12T04:09:38.354Z,2.15
2022-08-12T04:12:26.206Z,2.10
2022-08-12T04:14:57.095Z,2.20
2022-08-12T04:17:28.230Z,2.12
2022-08-12T04:19:57.840Z,2.10
2022-08-12T04:22:29.540Z,2.20
2022-08-12T04:25:01.158Z,2.22
2022-08-12T04:27:31.834Z,2.10
2022-08-12T04:30:29.920Z,2.10
2022-08-12T04:32:50.107Z,2.30
2022-08-12T04:35:18.449Z,2.10
2022-08-12T04:37:58.162Z,2.20
2022-08-12T04:40:33.214Z,2.10
2022-08-12T04:43:03.416Z,2.00
2022-08-12T04:45:32.960Z,2.40
2022-08-12T04:48:02.101Z,2.10
2022-08-12T04:50:34.557Z,2.15
2022-08-12T04:53:08.044Z,2.10
2022-08-12T04:55:38.867Z,2.08
2022-08-12T04:58:08.242Z,2.35
2022-08-12T05:00:36.293Z,2.20
2022-08-12T05:03:05.506Z,2.35
2022-08-12T05:05:36.329Z,2.20
2022-08-12T05:08:06.418Z,2.12
2022-08-12T05:10:35.843Z,2.15
2022-08-12T05:13:08.214Z,2.10
2022-08-12T05:16:03.953Z,2.05
2022-08-12T05:18:29.195Z,2.80
2022-08-12T05:20:59.197Z,2.17
2022-08-12T05:23:27.110Z,2.55
2022-08-12T05:25:57.146Z,2.10
2022-08-12T05:28:27.153Z,2.35
2022-08-12T05:30:55.536Z,2.33
2022-08-12T05:33:31.590Z,2.30
2022-08-12T05:35:59.411Z,2.10
2022-08-12T05:38:45.557Z,2.08
2022-08-12T05:41:20.490Z,2.30
2022-08-12T05:43:51.027Z,2.10
2022-08-12T05:46:20.753Z,2.20
2022-08-12T05:48:49.688Z,2.30
2022-08-12T05:51:18.927Z,2.28
2022-08-12T05:53:46.895Z,2.30
2022-08-12T05:56:27.498Z,2.30
2022-08-12T05:58:56.470Z,2.50
2022-08-12T06:02:12.276Z,2.20
2022-08-12T06:04:14.326Z,2.25
2022-08-12T06:06:42.381Z,2.30
2022-08-12T06:09:10.988Z,2.20
2022-08-12T06:12:04.106Z,2.65
2022-08-12T06:14:29.125Z,2.30
2022-08-12T06:16:58.019Z,2.25
2022-08-12T06:20:22.755Z,2.37
2022-08-12T06:22:15.672Z,2.40
2022-08-12T06:24:43.423Z,2.70
2022-08-12T06:27:11.688Z,2.33
2022-08-12T06:30:09.732Z,2.47
2022-08-12T06:32:35.340Z,2.50
2022-08-12T06:35:27.088Z,2.40
2022-08-12T06:37:57.164Z,2.60
2022-08-12T06:40:44.487Z,2.50
2022-08-12T06:43:13.726Z,2.53
2022-08-12T06:45:46.881Z,2.40
2022-08-12T06:48:15.454Z,2.50
2022-08-12T06:50:44.578Z,2.60
2022-08-12T06:53:12.463Z,2.60
2022-08-12T06:55:58.035Z,2.55
2022-08-12T06:58:31.668Z,2.55
2022-08-12T07:00:59.918Z,2.55
2022-08-12T07:03:28.712Z,2.80
2022-08-12T07:06:02.364Z,2.62
2022-08-12T07:08:34.898Z,2.62
2022-08-12T07:11:05.407Z,2.50
2022-08-12T07:14:12.789Z,2.70
2022-08-12T07:16:46.913Z,2.60
2022-08-12T07:19:15.487Z,2.58
2022-08-12T07:21:57.959Z,2.62
2022-08-12T07:24:28.489Z,2.40
2022-08-12T07:26:56.244Z,2.60
2022-08-12T07:29:25.475Z,2.55
2022-08-12T07:32:13.314Z,2.50
2022-08-12T07:34:42.420Z,2.65
2022-08-12T07:37:09.950Z,2.65
2022-08-12T07:39:51.367Z,2.80
2022-08-12T07:42:25.358Z,2.67
2022-08-12T07:44:55.039Z,2.40
2022-08-12T07:47:23.117Z,2.73
2022-08-12T07:50:04.303Z,2.58
2022-08-12T07:52:38.514Z,2.60
2022-08-12T07:55:06.872Z,2.83
2022-08-12T07:57:35.044Z,2.83
2022-08-12T08:00:05.990Z,2.67
2022-08-12T08:02:36.428Z,2.80
2022-08-12T08:05:05.033Z,2.53
2022-08-12T08:07:32.618Z,2.60
2022-08-12T08:10:01.010Z,2.62
2022-08-12T08:12:48.379Z,2.70
2022-08-12T08:15:16.263Z,2.40
2022-08-12T08:18:01.433Z,2.83
2022-08-12T08:20:34.224Z,2.62
2022-08-12T08:23:05.804Z,2.75
2022-08-12T08:25:36.792Z,2.87
2022-08-12T08:28:10.761Z,3.10
2022-08-12T08:30:43.027Z,2.95
2022-08-12T08:33:20.137Z,2.70
2022-08-12T08:36:00.859Z,2.70
2022-08-12T08:38:32.895Z,3.30
2022-08-12T08:42:13.982Z,2.97
2022-08-12T08:44:11.464Z,3.00
2022-08-12T08:46:44.625Z,2.90
2022-08-12T08:49:13.123Z,2.80
2022-08-12T08:51:40.835Z,2.97
2022-08-12T08:54:08.934Z,2.87
2022-08-12T08:56:52.438Z,2.97
2022-08-12T08:59:20.237Z,3.10
2022-08-12T09:01:48.277Z,2.80
2022-08-12T09:05:10.124Z,3.10
2022-08-12T09:07:17.737Z,3.28
2022-08-12T09:10:01.383Z,3.12
2022-08-12T09:13:03.657Z,3.00
2022-08-12T09:15:36.344Z,3.47
2022-08-12T09:18:05.961Z,3.97
2022-08-12T09:20:38.775Z,3.30
2022-08-12T09:25:57.175Z,3.70
2022-08-12T09:28:33.037Z,3.20
2022-08-12T09:31:00.537Z,3.40
2022-08-12T09:34:28.975Z,3.35
2022-08-12T09:36:31.125Z,3.27
2022-08-12T09:40:03.107Z,3.37
2022-08-12T09:42:38.693Z,3.20
2022-08-12T09:45:23.174Z,3.30
2022-08-12T09:47:59.905Z,3.25
2022-08-12T09:50:28.332Z,2.80
2022-08-12T09:53:15.133Z,2.95
2022-08-12T09:56:07.090Z,2.67
2022-08-12T09:58:56.634Z,4.20
2022-08-12T10:01:25.191Z,3.42
2022-08-12T10:04:04.985Z,7.30
2022-08-12T10:06:36.641Z,3.87
2022-08-12T10:09:21.138Z,2.97
2022-08-12T10:12:11.983Z,7.00
2022-08-12T10:14:50.300Z,2.90
2022-08-12T10:17:22.961Z,2.60
2022-08-12T10:19:53.018Z,3.33
2022-08-12T10:22:39.436Z,2.80
2022-08-12T10:26:18.219Z,2.95
2022-08-12T10:28:38.899Z,2.50
2022-08-12T10:31:16.332Z,2.80
2022-08-12T10:33:55.763Z,2.73
2022-08-12T10:36:40.733Z,2.50
2022-08-12T10:40:02.149Z,2.60
2022-08-12T10:42:29.619Z,2.97
2022-08-12T10:45:18.099Z,2.60
2022-08-12T10:48:14.938Z,2.75
2022-08-12T10:51:01.762Z,2.70
2022-08-12T10:53:44.219Z,2.78
2022-08-12T10:56:17.988Z,2.62
2022-08-12T10:58:47.186Z,2.53
2022-08-12T11:01:50.212Z,2.70
2022-08-12T11:04:24.946Z,2.78
2022-08-12T11:07:06.725Z,2.90
2022-08-12T11:10:00.625Z,2.87
2022-08-12T11:12:55.450Z,2.80
2022-08-12T11:15:24.213Z,2.90
2022-08-12T11:18:03.262Z,2.70
2022-08-12T11:20:31.496Z,2.70
2022-08-12T11:23:03.854Z,2.85
2022-08-12T11:25:56.892Z,2.87
2022-08-12T11:28:33.498Z,2.47
2022-08-12T11:31:11.866Z,2.33
2022-08-12T11:34:04.763Z,2.30
2022-08-12T11:36:31.047Z,2.20
2022-08-12T11:39:04.246Z,2.45
2022-08-12T11:41:39.323Z,2.85
2022-08-12T11:44:36.169Z,2.30
2022-08-12T11:46:55.135Z,2.20
2022-08-12T11:49:31.305Z,2.22
2022-08-12T11:52:04.410Z,2.03
2022-08-12T11:54:54.247Z,2.20
2022-08-12T11:58:14.337Z,2.20
2022-08-12T12:02:58.781Z,2.15
2022-08-12T12:05:28.480Z,1.92
2022-08-12T12:08:38.852Z,2.45
2022-08-12T12:10:57.359Z,2.05
2022-08-12T12:14:08.533Z,2.10
2022-08-12T12:16:15.020Z,2.17
2022-08-12T12:18:42.861Z,2.22
2022-08-12T12:21:10.334Z,2.10
2022-08-12T12:23:38.200Z,2.00
2022-08-12T12:26:35.724Z,2.30
2022-08-12T12:29:03.404Z,2.30
2022-08-12T12:32:10.448Z,2.08
2022-08-12T12:34:30.549Z,2.08
2022-08-12T12:36:58.587Z,2.53
2022-08-12T12:39:28.428Z,1.95
2022-08-12T12:42:42.866Z,2.05
2022-08-12T12:44:51.041Z,2.30
2022-08-12T12:47:29.345Z,2.43
2022-08-12T12:50:00.965Z,2.20
2022-08-12T12:52:28.375Z,2.30
2022-08-12T12:54:58.721Z,2.50
2022-08-12T12:57:36.150Z,2.30
2022-08-12T13:00:15.742Z,2.17
2022-08-12T13:02:57.665Z,2.10
2022-08-12T13:05:29.311Z,2.20
2022-08-12T13:08:01.442Z,2.10
2022-08-12T13:10:37.018Z,2.00
2022-08-12T13:14:07.398Z,2.60
2022-08-12T13:16:21.583Z,2.10
2022-08-12T13:18:54.160Z,2.03
2022-08-12T13:21:36.677Z,2.03
2022-08-12T13:24:10.254Z,2.05
2022-08-12T13:26:48.175Z,1.70
2022-08-12T13:29:20.282Z,2.00
2022-08-12T13:32:19.683Z,2.10
2022-08-12T13:35:04.233Z,2.10
2022-08-12T13:38:07.907Z,2.30
2022-08-12T13:40:46.262Z,2.20
2022-08-12T13:43:40.572Z,2.20
2022-08-12T13:46:18.180Z,2.20
2022-08-12T13:48:55.647Z,2.30
2022-08-12T13:51:24.761Z,2.05
2022-08-12T13:53:57.591Z,2.25
2022-08-12T13:56:34.852Z,2.15
2022-08-12T13:59:07.708Z,2.40
2022-08-12T14:01:40.779Z,2.22
2022-08-12T14:04:12.656Z,2.30
2022-08-12T14:06:41.373Z,2.70
2022-08-12T14:09:17.231Z,2.33
2022-08-12T14:11:58.851Z,2.40
2022-08-12T14:14:31.140Z,2.20
2022-08-12T14:17:10.407Z,2.40
2022-08-12T14:20:00.722Z,2.30
2022-08-12T14:22:30.403Z,2.20
2022-08-12T14:25:10.027Z,2.12
2022-08-12T14:28:03.775Z,2.35
2022-08-12T14:30:29.181Z,2.03
2022-08-12T14:33:03.441Z,2.00
2022-08-12T14:35:41.036Z,2.10
2022-08-12T14:38:25.453Z,1.90
2022-08-12T14:40:59.620Z,2.00
2022-08-12T14:43:44.565Z,2.00
2022-08-12T14:46:23.558Z,1.90
2022-08-12T14:48:53.915Z,2.10
2022-08-12T14:52:39.691Z,2.03
2022-08-12T14:57:05.760Z,2.17
2022-08-12T15:00:06.287Z,2.05
2022-08-12T15:02:34.937Z,1.85
2022-08-12T15:05:03.447Z,1.92
2022-08-12T15:07:34.453Z,1.70
2022-08-12T15:10:13.585Z,2.00
2022-08-12T15:12:41.456Z,1.98
2022-08-12T15:15:10.558Z,2.00
2022-08-12T15:17:39.669Z,2.10
2022-08-12T15:20:33.261Z,2.00
2022-08-12T15:22:57.873Z,1.90
2022-08-12T15:25:30.311Z,2.00
2022-08-12T15:28:25.981Z,1.90
2022-08-12T15:30:54.325Z,2.10
2022-08-12T15:33:24.151Z,2.00
2022-08-12T15:35:53.240Z,1.92
2022-08-12T15:38:28.157Z,5.30
2022-08-12T15:40:59.107Z,2.10
2022-08-12T15:44:14.211Z,2.10
2022-08-12T15:46:21.330Z,2.20
2022-08-12T15:48:53.610Z,2.00
2022-08-12T15:51:59.946Z,2.17
2022-08-12T15:54:34.399Z,2.20
2022-08-12T15:57:08.294Z,2.30
2022-08-12T16:00:00.653Z,2.10
2022-08-12T16:02:29.850Z,2.13
2022-08-12T16:04:58.499Z,2.00
2022-08-12T16:07:31.004Z,2.00
2022-08-12T16:10:05.942Z,2.17
2022-08-12T16:12:54.617Z,2.30
2022-08-12T16:15:29.603Z,2.30
2022-08-12T16:18:19.105Z,2.00
2022-08-12T16:20:48.291Z,2.10
2022-08-12T16:23:26.259Z,2.20
2022-08-12T16:26:15.565Z,2.30
2022-08-12T16:28:49.501Z,2.22
2022-08-12T16:31:23.126Z,2.20
2022-08-12T16:33:58.861Z,2.20
2022-08-12T16:36:31.952Z,2.37
2022-08-12T16:39:01.966Z,2.10
2022-08-12T16:41:39.451Z,2.25
2022-08-12T16:44:09.222Z,2.45
2022-08-12T16:46:50.676Z,2.10
2022-08-12T16:49:26.318Z,2.10
2022-08-12T16:52:12.577Z,2.33
2022-08-12T16:54:44.290Z,2.43
2022-08-12T16:57:13.950Z,2.20
2022-08-12T16:59:54.210Z,2.10
2022-08-12T17:02:33.445Z,2.50
2022-08-12T17:05:05.265Z,2.15
2022-08-12T17:07:43.505Z,2.30
2022-08-12T17:10:18.455Z,2.50
2022-08-12T17:13:20.112Z,2.20
2022-08-12T17:16:05.668Z,2.22
2022-08-12T17:18:45.492Z,2.53
2022-08-12T17:21:41.446Z,2.30
2022-08-12T17:24:22.384Z,2.35
2022-08-12T17:26:56.538Z,2.30
2022-08-12T17:30:01.079Z,2.40
2022-08-12T17:32:28.305Z,2.40
2022-08-12T17:35:19.580Z,2.42
2022-08-12T17:37:50.425Z,2.45
2022-08-12T17:40:40.690Z,2.30
2022-08-12T17:43:54.701Z,2.50
2022-08-12T17:46:03.388Z,2.50
2022-08-12T17:48:34.168Z,3.00
2022-08-12T17:51:16.028Z,2.45
2022-08-12T17:54:10.709Z,2.70
2022-08-12T17:56:37.464Z,2.90
2022-08-12T17:59:12.373Z,2.83
2022-08-12T18:01:47.560Z,2.70
2022-08-12T18:04:36.082Z,3.20
2022-08-12T18:07:14.123Z,2.47
2022-08-12T18:09:43.050Z,3.10
2022-08-12T18:12:35.627Z,2.60
2022-08-12T18:15:09.020Z,2.40
2022-08-12T18:17:39.665Z,3.30
2022-08-12T18:20:15.441Z,3.03
2022-08-12T18:22:47.196Z,2.78
2022-08-12T18:26:11.550Z,2.70
2022-08-12T18:28:30.786Z,2.67
2022-08-12T18:33:45.945Z,2.67
2022-08-12T18:36:22.465Z,2.70
2022-08-12T18:38:56.076Z,2.40
2022-08-12T18:41:36.037Z,2.80
2022-08-12T18:44:06.072Z,4.10
2022-08-12T18:46:54.978Z,2.72
2022-08-12T18:49:29.692Z,2.95
2022-08-12T18:52:04.138Z,2.58
2022-08-12T18:54:35.524Z,2.80
2022-08-12T18:57:16.734Z,2.90
2022-08-12T19:00:00.063Z,2.87
2022-08-12T19:02:36.052Z,3.10
2022-08-12T19:05:10.061Z,3.22
2022-08-12T19:07:50.119Z,2.80
2022-08-12T19:10:32.377Z,2.80
2022-08-12T19:13:23.048Z,3.03
2022-08-12T19:15:58.136Z,2.97
2022-08-12T19:18:31.121Z,3.12
2022-08-12T19:21:11.580Z,3.67
2022-08-12T19:24:15.516Z,3.30
2022-08-12T19:26:46.095Z,3.17
2022-08-12T19:29:25.309Z,3.20
2022-08-12T19:32:03.166Z,2.95
2022-08-12T19:38:03.186Z,2.80
2022-08-12T19:40:32.700Z,2.78
2022-08-12T19:43:20.094Z,2.95
2022-08-12T19:45:51.831Z,2.60
2022-08-12T19:48:22.966Z,2.43
2022-08-12T19:50:54.107Z,2.55
2022-08-12T19:53:23.444Z,2.72
2022-08-12T19:55:53.773Z,2.50
2022-08-12T19:58:22.803Z,2.90
2022-08-12T20:00:54.932Z,2.70
2022-08-12T20:03:38.275Z,3.17
2022-08-12T20:06:14.130Z,2.87
2022-08-12T20:08:53.822Z,3.00
2022-08-12T20:12:13.518Z,3.35
2022-08-12T20:14:20.968Z,3.00
2022-08-12T20:16:57.183Z,2.87
2022-08-12T20:20:01.141Z,3.00
2022-08-12T20:22:29.770Z,3.22
2022-08-12T20:25:14.011Z,2.97
2022-08-12T20:28:04.635Z,2.97
2022-08-12T20:30:59.195Z,3.30
2022-08-12T20:33:50.112Z,3.30
2022-08-12T20:36:40.713Z,3.20
2022-08-12T20:39:34.434Z,3.05
2022-08-12T20:42:07.435Z,3.12
2022-08-12T20:44:39.625Z,3.30
2022-08-12T20:47:17.953Z,2.75
2022-08-12T20:49:55.243Z,3.40
2022-08-12T20:52:29.822Z,3.00
2022-08-12T20:55:01.166Z,2.85
2022-08-12T20:57:37.828Z,3.97
2022-08-12T21:00:16.304Z,2.70
2022-08-12T21:02:50.092Z,2.70
2022-08-12T21:06:10.299Z,2.78
2022-08-12T21:08:30.999Z,3.00
2022-08-12T21:11:01.933Z,2.85
2022-08-12T21:13:29.563Z,3.25
2022-08-12T21:16:09.904Z,3.00
2022-08-12T21:18:38.138Z,2.83
2022-08-12T21:21:06.859Z,2.83
2022-08-12T21:23:52.316Z,3.20
2022-08-12T21:26:24.347Z,2.90
2022-08-12T21:29:01.400Z,3.20
2022-08-12T21:32:39.507Z,2.97
2022-08-12T21:34:23.003Z,3.05
2022-08-12T21:37:11.931Z,2.80
2022-08-12T21:39:52.446Z,2.97
2022-08-12T21:42:20.992Z,2.65
2022-08-12T21:45:47.003Z,2.90
2022-08-12T21:47:43.398Z,2.70
2022-08-12T21:50:11.098Z,2.75
2022-08-12T21:52:42.188Z,3.12
2022-08-12T21:55:18.019Z,2.60
2022-08-12T21:57:54.565Z,2.72
2022-08-12T22:00:35.139Z,2.40
2022-08-12T22:04:03.771Z,2.37
2022-08-12T22:06:31.114Z,2.45
2022-08-12T22:09:16.454Z,2.70
2022-08-12T22:11:57.006Z,2.62
2022-08-12T22:14:28.731Z,2.50
2022-08-12T22:16:57.376Z,2.50
2022-08-12T22:19:24.970Z,2.60
2022-08-12T22:21:58.873Z,2.40
2022-08-12T22:24:31.402Z,2.50
2022-08-12T22:27:14.485Z,2.45
2022-08-12T22:30:07.022Z,2.83
2022-08-12T22:32:38.914Z,3.00
2022-08-12T22:35:55.375Z,2.70
2022-08-12T22:38:23.935Z,2.87
2022-08-12T22:41:00.858Z,2.92
2022-08-12T22:44:01.127Z,2.50
2022-08-12T22:46:51.834Z,2.80
2022-08-12T22:49:36.292Z,2.60
2022-08-12T22:52:08.398Z,2.85
2022-08-12T22:54:37.548Z,2.70
2022-08-12T22:57:14.132Z,2.70
2022-08-12T22:59:55.647Z,2.65
2022-08-12T23:02:30.232Z,2.60
2022-08-12T23:04:58.603Z,2.55
2022-08-12T23:07:26.084Z,2.75
2022-08-12T23:09:54.801Z,2.78
2022-08-12T23:12:46.992Z,2.80
2022-08-12T23:15:16.466Z,2.60
2022-08-12T23:17:45.981Z,2.80
2022-08-12T23:20:15.108Z,2.95
2022-08-12T23:23:02.798Z,2.80
2022-08-12T23:25:32.645Z,3.15
2022-08-12T23:28:36.877Z,3.10
2022-08-12T23:31:06.583Z,3.10
2022-08-12T23:34:02.260Z,3.15
2022-08-12T23:36:39.384Z,3.60
2022-08-12T23:40:15.743Z,3.42
2022-08-12T23:42:16.944Z,3.50
2022-08-12T23:44:48.369Z,3.40
2022-08-12T23:47:21.434Z,3.72
2022-08-12T23:49:58.640Z,3.25
2022-08-12T23:52:34.394Z,3.30
2022-08-12T23:55:25.057Z,3.40
2022-08-12T23:58:18.118Z,3.20
